createdAt,value
2022-11-23T00:02:01.695Z,9.78
2022-11-23T00:04:29.097Z,5.66
2022-11-23T00:07:01.217Z,11.55
2022-11-23T00:22:10.491Z,10.73
2022-11-23T00:24:55.670Z,11.78
2022-11-23T00:27:22.766Z,8.91
2022-11-23T00:29:49.480Z,7.74
2022-11-23T00:32:16.396Z,8.71
2022-11-23T00:34:43.091Z,11.61
2022-11-23T00:37:10.300Z,10.00
2022-11-23T00:39:37.278Z,10.33
2022-11-23T00:42:04.143Z,11.13
2022-11-23T00:44:30.978Z,9.57
2022-11-23T00:46:57.742Z,11.20
2022-11-23T00:49:24.970Z,10.25
2022-11-23T00:51:53.042Z,9.40
2022-11-23T00:54:19.777Z,9.58
2022-11-23T00:56:46.563Z,9.57
2022-11-23T00:59:13.242Z,8.59
2022-11-23T01:01:40.600Z,9.88
2022-11-23T01:04:09.148Z,10.62
2022-11-23T01:06:40.260Z,10.74
2022-11-23T01:09:13.857Z,11.92
2022-11-23T01:11:40.806Z,11.73
2022-11-23T01:14:07.761Z,11.00
2022-11-23T01:16:37.493Z,9.50
2022-11-23T01:19:09.531Z,8.97
2022-11-23T01:21:37.420Z,8.61
2022-11-23T01:24:15.311Z,8.78
2022-11-23T01:26:44.225Z,9.28
2022-11-23T01:29:11.829Z,8.56
2022-11-23T01:31:45.921Z,8.89
2022-11-23T01:34:15.419Z,10.86
2022-11-23T01:36:42.974Z,11.29
2022-11-23T01:39:11.438Z,10.09
2022-11-23T01:41:40.806Z,12.08
2022-11-23T01:44:31.320Z,12.55
2022-11-23T01:47:04.013Z,12.30
2022-11-23T01:49:38.121Z,12.94
2022-11-23T01:52:26.488Z,11.80
2022-11-23T01:54:55.982Z,13.49
2022-11-23T01:57:33.702Z,12.18
2022-11-23T02:00:00.949Z,11.31
2022-11-23T02:02:30.825Z,12.33
2022-11-23T02:05:00.854Z,9.99
2022-11-23T02:07:29.192Z,11.21
2022-11-23T02:09:56.055Z,11.35
2022-11-23T02:12:23.307Z,12.35
2022-11-23T02:14:51.159Z,8.58
2022-11-23T02:17:19.470Z,10.95
2022-11-23T02:20:10.828Z,11.61
2022-11-23T02:23:16.266Z,7.56
2022-11-23T02:25:45.975Z,11.06
2022-11-23T02:28:25.065Z,11.37
2022-11-23T02:30:54.840Z,10.08
2022-11-23T02:33:25.788Z,9.94
2022-11-23T02:35:55.030Z,11.07
2022-11-23T02:38:26.625Z,11.26
2022-11-23T02:40:55.990Z,10.35
2022-11-23T02:43:24.061Z,9.77
2022-11-23T02:46:00.005Z,11.08
2022-11-23T02:48:26.779Z,11.15
2022-11-23T02:50:54.905Z,10.68
2022-11-23T02:53:22.005Z,10.71
2022-11-23T02:55:48.912Z,11.97
2022-11-23T02:58:17.562Z,11.82
2022-11-23T03:00:44.467Z,11.70
2022-11-23T03:03:11.517Z,11.92
2022-11-23T03:05:40.237Z,10.49
2022-11-23T03:08:07.444Z,11.57
2022-11-23T03:10:34.460Z,11.58
2022-11-23T03:13:01.653Z,11.39
2022-11-23T03:15:33.001Z,12.22
2022-11-23T03:18:00.244Z,10.29
2022-11-23T03:20:27.430Z,10.56
2022-11-23T03:22:54.291Z,11.81
2022-11-23T03:25:23.770Z,11.03
2022-11-23T03:27:53.978Z,8.86
2022-11-23T03:30:21.339Z,11.10
2022-11-23T03:32:49.279Z,9.25
2022-11-23T03:35:17.185Z,10.72
2022-11-23T03:38:07.702Z,9.58
2022-11-23T03:40:34.516Z,9.57
2022-11-23T03:43:27.391Z,9.69
2022-11-23T03:45:54.113Z,10.32
2022-11-23T03:48:20.954Z,10.65
2022-11-23T03:50:49.309Z,11.29
2022-11-23T03:53:16.048Z,11.90
2022-11-23T03:55:45.738Z,12.05
2022-11-23T03:58:14.899Z,12.58
2022-11-23T04:00:42.151Z,11.92
2022-11-23T04:03:11.878Z,12.28
2022-11-23T04:05:57.147Z,11.69
2022-11-23T04:08:42.499Z,11.65
2022-11-23T04:11:15.521Z,12.15
2022-11-23T04:13:46.693Z,11.04
2022-11-23T04:16:13.485Z,12.13
2022-11-23T04:18:41.482Z,12.30
2022-11-23T04:21:09.294Z,10.95
2022-11-23T04:23:36.075Z,12.24
2022-11-23T04:26:05.897Z,11.47
2022-11-23T04:28:33.273Z,11.26
2022-11-23T04:31:00.210Z,12.52
2022-11-23T04:33:34.097Z,12.26
2022-11-23T04:36:00.929Z,12.43
2022-11-23T04:38:27.689Z,12.56
2022-11-23T04:40:54.603Z,12.90
2022-11-23T04:43:21.436Z,12.88
2022-11-23T04:45:48.721Z,10.87
2022-11-23T04:48:23.493Z,11.50
2022-11-23T04:50:53.098Z,11.89
2022-11-23T04:53:28.559Z,11.15
2022-11-23T04:55:56.892Z,11.57
2022-11-23T04:58:26.004Z,12.16
2022-11-23T05:00:58.583Z,11.28
2022-11-23T05:03:25.893Z,12.41
2022-11-23T05:05:52.720Z,12.34
2022-11-23T05:08:19.980Z,11.66
2022-11-23T05:10:57.392Z,11.91
2022-11-23T05:13:25.228Z,11.31
2022-11-23T05:15:53.732Z,11.63
2022-11-23T05:18:26.353Z,10.61
2022-11-23T05:20:53.765Z,11.93
2022-11-23T05:23:21.030Z,11.95
2022-11-23T05:25:49.946Z,12.34
2022-11-23T05:28:39.786Z,11.42
2022-11-23T05:31:10.100Z,11.67
2022-11-23T05:33:37.336Z,11.25
2022-11-23T05:36:05.481Z,10.95
2022-11-23T05:38:37.070Z,10.71
2022-11-23T05:41:09.966Z,11.77
2022-11-23T05:43:40.144Z,10.50
2022-11-23T05:46:09.989Z,9.50
2022-11-23T05:48:38.146Z,10.37
2022-11-23T05:51:10.472Z,10.29
2022-11-23T05:53:43.183Z,10.55
2022-11-23T05:56:30.163Z,11.28
2022-11-23T05:59:14.418Z,11.26
2022-11-23T06:01:44.453Z,11.42
2022-11-23T06:04:15.550Z,8.53
2022-11-23T06:06:45.502Z,10.95
2022-11-23T06:09:13.049Z,11.29
2022-11-23T06:11:44.780Z,8.41
2022-11-23T06:14:15.303Z,10.58
2022-11-23T06:16:44.898Z,11.17
2022-11-23T06:19:32.306Z,11.35
2022-11-23T06:21:59.213Z,11.73
2022-11-23T06:24:29.847Z,11.70
2022-11-23T06:27:28.900Z,11.85
2022-11-23T06:29:56.379Z,11.29
2022-11-23T06:32:26.479Z,10.37
2022-11-23T06:34:56.679Z,11.39
2022-11-23T06:37:26.605Z,11.71
2022-11-23T06:39:53.553Z,12.05
2022-11-23T06:45:27.753Z,11.56
2022-11-23T06:47:58.448Z,11.03
2022-11-23T06:50:26.797Z,11.98
2022-11-23T06:52:56.991Z,11.61
2022-11-23T06:55:34.250Z,9.09
2022-11-23T06:58:01.485Z,10.96
2022-11-23T07:00:28.989Z,12.20
2022-11-23T07:02:56.889Z,11.03
2022-11-23T07:05:25.345Z,10.75
2022-11-23T07:07:52.525Z,11.32
2022-11-23T07:10:27.029Z,10.93
2022-11-23T07:13:07.233Z,11.94
2022-11-23T07:15:36.984Z,10.82
2022-11-23T07:18:04.408Z,10.95
2022-11-23T07:20:32.549Z,12.26
2022-11-23T07:23:05.686Z,12.34
2022-11-23T07:25:35.311Z,11.06
2022-11-23T07:28:03.959Z,11.39
2022-11-23T07:30:33.226Z,11.77
2022-11-23T07:33:09.081Z,12.54
2022-11-23T07:35:38.614Z,13.02
2022-11-23T07:38:07.944Z,13.41
2022-11-23T07:40:39.122Z,12.97
2022-11-23T07:43:12.313Z,13.64
2022-11-23T07:45:39.284Z,14.42
2022-11-23T07:48:10.310Z,16.80
2022-11-23T07:50:38.932Z,19.61
2022-11-23T07:53:07.537Z,18.53
2022-11-23T07:55:34.644Z,18.44
2022-11-23T07:58:01.388Z,19.64
2022-11-23T08:00:29.201Z,20.52
2022-11-23T08:03:26.283Z,19.47
2022-11-23T08:05:45.830Z,19.42
2022-11-23T08:08:13.286Z,20.27
2022-11-23T08:10:46.063Z,20.37
2022-11-23T08:13:15.369Z,20.28
2022-11-23T08:15:42.481Z,20.36
2022-11-23T08:18:10.632Z,18.39
2022-11-23T08:20:37.274Z,19.82
2022-11-23T08:23:04.005Z,20.50
2022-11-23T08:25:30.833Z,19.97
2022-11-23T08:28:00.088Z,21.66
2022-11-23T08:30:28.899Z,18.41
2022-11-23T08:32:55.861Z,14.30
2022-11-23T08:35:23.019Z,17.56
2022-11-23T08:37:50.162Z,21.23
2022-11-23T08:40:22.048Z,18.69
2022-11-23T08:42:52.442Z,19.17
2022-11-23T08:45:19.230Z,15.94
2022-11-23T08:47:45.983Z,19.07
2022-11-23T08:50:14.007Z,20.33
2022-11-23T08:52:41.002Z,19.61
2022-11-23T08:55:08.085Z,21.42
2022-11-23T08:57:35.262Z,20.48
2022-11-23T09:00:02.466Z,15.81
2022-11-23T09:02:29.318Z,14.89
2022-11-23T09:04:56.123Z,14.89
2022-11-23T09:07:22.904Z,15.19
2022-11-23T09:09:49.670Z,13.44
2022-11-23T09:12:16.489Z,16.11
2022-11-23T09:14:43.917Z,13.59
2022-11-23T09:17:11.121Z,16.00
2022-11-23T09:19:37.855Z,13.15
2022-11-23T09:22:04.750Z,15.80
2022-11-23T09:24:33.015Z,14.36
2022-11-23T09:27:00.338Z,13.62
2022-11-23T09:29:28.499Z,14.07
2022-11-23T09:31:56.125Z,14.44
2022-11-23T09:34:23.138Z,13.48
2022-11-23T09:36:49.955Z,13.28
2022-11-23T09:39:16.785Z,13.45
2022-11-23T09:41:56.264Z,14.22
2022-11-23T09:45:00.531Z,14.52
2022-11-23T09:47:36.827Z,16.24
2022-11-23T09:50:10.081Z,16.21
2022-11-23T09:52:41.512Z,14.74
2022-11-23T09:55:19.123Z,12.59
2022-11-23T09:57:48.324Z,11.81
2022-11-23T10:00:21.946Z,14.85
2022-11-23T10:02:49.198Z,14.66
2022-11-23T10:05:19.911Z,13.13
2022-11-23T10:07:54.567Z,12.67
2022-11-23T10:10:30.666Z,15.61
2022-11-23T10:13:23.536Z,15.75
2022-11-23T10:16:05.280Z,14.37
2022-11-23T10:18:50.094Z,15.60
2022-11-23T10:21:52.171Z,15.43
2022-11-23T10:24:25.169Z,14.32
2022-11-23T10:26:51.910Z,21.24
2022-11-23T10:29:35.721Z,22.40
2022-11-23T10:32:05.360Z,23.83
2022-11-23T10:34:57.060Z,20.94
2022-11-23T10:37:23.749Z,22.30
2022-11-23T10:39:50.525Z,22.40
2022-11-23T10:42:33.690Z,22.07
2022-11-23T10:45:01.758Z,20.13
2022-11-23T10:47:36.097Z,20.03
2022-11-23T10:50:02.964Z,18.49
2022-11-23T10:52:32.892Z,21.35
2022-11-23T10:55:05.070Z,17.98
2022-11-23T10:57:37.302Z,15.78
2022-11-23T11:00:04.631Z,19.27
2022-11-23T11:02:45.368Z,18.08
2022-11-23T11:08:29.634Z,18.56
2022-11-23T11:11:08.415Z,16.30
2022-11-23T11:13:38.194Z,17.26
2022-11-23T11:16:07.506Z,15.75
2022-11-23T11:18:37.445Z,18.95
2022-11-23T11:21:26.188Z,14.79
2022-11-23T11:23:59.430Z,17.28
2022-11-23T11:26:28.861Z,14.47
2022-11-23T11:29:10.029Z,14.41
2022-11-23T11:31:48.441Z,16.50
2022-11-23T11:34:21.583Z,17.66
2022-11-23T11:36:56.201Z,11.18
2022-11-23T11:39:38.879Z,16.41
2022-11-23T11:42:14.144Z,19.22
2022-11-23T11:44:44.075Z,15.99
2022-11-23T11:47:27.173Z,16.46
2022-11-23T11:49:59.704Z,15.89
2022-11-23T11:52:34.296Z,17.41
2022-11-23T11:55:18.092Z,16.90
2022-11-23T11:57:50.309Z,14.02
2022-11-23T12:00:21.175Z,16.93
2022-11-23T12:03:13.049Z,18.02
2022-11-23T12:05:52.002Z,14.79
2022-11-23T12:08:21.895Z,15.73
2022-11-23T12:10:56.929Z,16.05
2022-11-23T12:13:27.321Z,17.55
2022-11-23T12:16:22.382Z,18.51
2022-11-23T12:19:19.456Z,15.60
2022-11-23T12:21:48.989Z,18.54
2022-11-23T12:24:49.752Z,17.38
2022-11-23T12:27:48.460Z,19.74
2022-11-23T12:30:31.741Z,19.74
2022-11-23T12:33:20.950Z,16.98
2022-11-23T12:36:20.571Z,15.21
2022-11-23T12:38:56.327Z,14.79
2022-11-23T12:41:47.650Z,14.09
2022-11-23T12:44:36.022Z,13.50
2022-11-23T12:47:05.337Z,16.30
2022-11-23T12:50:10.135Z,16.56
2022-11-23T12:53:07.821Z,16.14
2022-11-23T12:56:05.103Z,14.78
2022-11-23T12:58:34.810Z,16.30
2022-11-23T13:01:10.397Z,16.51
2022-11-23T13:03:56.029Z,16.77
2022-11-23T13:07:26.749Z,13.61
2022-11-23T13:10:04.878Z,13.12
2022-11-23T13:12:47.388Z,14.15
2022-11-23T13:15:59.994Z,15.80
2022-11-23T13:18:43.894Z,13.86
2022-11-23T13:21:13.943Z,15.74
2022-11-23T13:23:40.801Z,15.14
2022-11-23T13:26:21.177Z,15.76
2022-11-23T13:28:50.151Z,12.03
2022-11-23T13:31:17.092Z,13.90
2022-11-23T13:33:47.218Z,13.34
2022-11-23T13:37:11.843Z,11.01
2022-11-23T13:39:59.012Z,12.09
2022-11-23T13:42:27.460Z,11.79
2022-11-23T13:45:20.232Z,14.24
2022-11-23T13:48:09.107Z,13.17
2022-11-23T13:50:39.586Z,12.69
2022-11-23T13:53:25.108Z,13.46
2022-11-23T13:55:59.239Z,11.23
2022-11-23T13:58:26.267Z,13.32
2022-11-23T14:00:58.166Z,12.90
2022-11-23T14:03:44.423Z,11.83
2022-11-23T14:06:44.425Z,9.68
2022-11-23T14:09:37.055Z,12.46
2022-11-23T14:12:17.891Z,12.34
2022-11-23T14:15:10.920Z,11.66
2022-11-23T14:17:48.986Z,12.46
2022-11-23T14:21:07.112Z,12.04
2022-11-23T14:23:52.710Z,11.72
2022-11-23T14:26:28.561Z,10.25
2022-11-23T14:29:54.717Z,13.76
2022-11-23T14:32:27.464Z,10.90
2022-11-23T14:35:17.089Z,9.54
2022-11-23T14:38:20.976Z,11.18
2022-11-23T14:41:08.911Z,10.60
2022-11-23T15:13:57.824Z,12.42
2022-11-23T15:16:24.613Z,12.28
2022-11-23T15:18:52.136Z,12.13
2022-11-23T15:21:27.711Z,11.55
2022-11-23T15:23:57.897Z,10.60
2022-11-23T15:26:49.419Z,11.14
2022-11-23T15:29:34.995Z,11.38
2022-11-23T15:34:53.625Z,9.99
2022-11-23T15:37:21.577Z,10.05
2022-11-23T15:39:53.782Z,11.86
2022-11-23T15:42:23.807Z,10.46
2022-11-23T15:45:31.976Z,11.32
2022-11-23T15:48:01.478Z,10.21
2022-11-23T15:50:33.814Z,10.94
2022-11-23T15:53:02.431Z,11.80
2022-11-23T15:55:30.583Z,11.19
2022-11-23T15:57:58.410Z,10.03
2022-11-23T16:00:26.161Z,10.77
2022-11-23T16:02:53.182Z,10.41
2022-11-23T16:05:22.890Z,10.89
2022-11-23T16:07:58.160Z,9.57
2022-11-23T16:10:29.785Z,9.26
2022-11-23T16:12:59.751Z,10.92
2022-11-23T16:15:34.236Z,8.88
2022-11-23T16:18:03.792Z,10.46
2022-11-23T16:20:32.688Z,10.50
2022-11-23T16:23:01.263Z,9.58
2022-11-23T16:25:33.987Z,8.53
2022-11-23T16:28:17.670Z,8.04
2022-11-23T16:30:49.061Z,8.85
2022-11-23T16:33:19.092Z,8.01
2022-11-23T16:35:47.464Z,8.65
2022-11-23T16:38:14.664Z,7.42
2022-11-23T16:40:43.364Z,7.78
2022-11-23T16:43:10.997Z,7.97
2022-11-23T16:45:43.801Z,8.83
2022-11-23T16:48:26.373Z,8.24
2022-11-23T16:50:54.546Z,8.14
2022-11-23T16:53:21.591Z,8.28
2022-11-23T16:55:55.790Z,7.67
2022-11-23T16:58:22.729Z,9.57
2022-11-23T17:00:50.516Z,7.60
2022-11-23T17:03:19.979Z,8.52
2022-11-23T17:05:48.151Z,8.97
2022-11-23T17:08:21.620Z,6.48
2022-11-23T17:10:51.395Z,8.94
2022-11-23T17:13:24.891Z,8.51
2022-11-23T17:15:52.670Z,9.24
2022-11-23T17:18:20.327Z,9.22
2022-11-23T17:20:48.420Z,9.31
2022-11-23T17:23:15.132Z,6.87
2022-11-23T17:25:42.061Z,7.69
2022-11-23T17:28:16.867Z,8.81
2022-11-23T17:30:43.890Z,7.55
2022-11-23T17:33:11.896Z,8.84
2022-11-23T17:35:39.161Z,8.32
2022-11-23T17:38:07.181Z,9.94
2022-11-23T17:40:33.953Z,9.34
2022-11-23T17:43:02.041Z,7.27
2022-11-23T17:45:28.916Z,9.02
2022-11-23T17:48:00.561Z,9.55
2022-11-23T17:50:30.103Z,7.88
2022-11-23T17:52:56.886Z,5.32
2022-11-23T17:55:23.736Z,8.24
2022-11-23T17:57:50.838Z,8.92
2022-11-23T18:00:21.442Z,9.69
2022-11-23T18:02:48.956Z,8.07
2022-11-23T18:05:21.557Z,9.86
2022-11-23T18:07:50.503Z,8.92
2022-11-23T18:10:18.931Z,9.28
2022-11-23T18:12:48.214Z,8.52
2022-11-23T18:15:15.537Z,9.08
2022-11-23T18:17:42.306Z,8.65
2022-11-23T18:20:10.317Z,8.76
2022-11-23T18:22:37.502Z,9.71
2022-11-23T18:25:04.491Z,8.95
2022-11-23T18:27:32.423Z,9.42
2022-11-23T18:29:59.185Z,8.58
2022-11-23T18:32:25.983Z,9.37
2022-11-23T18:34:52.981Z,9.16
2022-11-23T18:37:19.605Z,8.88
2022-11-23T18:39:47.760Z,6.04
2022-11-23T18:42:14.523Z,4.98
2022-11-23T18:44:41.305Z,5.91
2022-11-23T18:47:08.060Z,6.28
2022-11-23T18:49:35.131Z,6.91
2022-11-23T18:52:02.781Z,7.75
2022-11-23T18:54:29.662Z,8.49
2022-11-23T18:56:56.407Z,8.22
2022-11-23T19:02:11.100Z,8.53
2022-11-23T19:04:40.904Z,9.88
2022-11-23T19:07:07.823Z,6.30
2022-11-23T19:09:35.232Z,6.96
2022-11-23T19:12:03.056Z,6.74
2022-11-23T19:14:29.776Z,8.10
2022-11-23T19:16:56.475Z,9.23
2022-11-23T19:19:23.249Z,7.67
2022-11-23T19:21:49.959Z,8.44
2022-11-23T19:24:18.174Z,6.41
2022-11-23T19:26:44.951Z,4.49
2022-11-23T19:29:11.800Z,4.36
2022-11-23T19:31:38.669Z,4.10
2022-11-23T19:34:06.886Z,7.34
2022-11-23T19:36:38.193Z,6.28
2022-11-23T19:39:06.100Z,8.99
2022-11-23T19:41:33.288Z,8.91
2022-11-23T19:44:01.287Z,9.85
2022-11-23T19:46:29.980Z,8.51
2022-11-23T19:48:57.551Z,10.95
2022-11-23T19:53:57.187Z,8.15
2022-11-23T19:56:25.814Z,5.27
2022-11-23T19:58:54.699Z,7.21
2022-11-23T20:01:23.736Z,7.28
2022-11-23T20:03:53.596Z,7.58
2022-11-23T20:06:28.147Z,5.49
2022-11-23T20:09:12.085Z,7.01
2022-11-23T20:11:40.678Z,4.64
2022-11-23T20:14:10.424Z,7.03
2022-11-23T20:16:37.572Z,5.62
2022-11-23T20:19:07.691Z,6.19
2022-11-23T20:21:37.514Z,6.54
2022-11-23T20:24:08.442Z,7.77
2022-11-23T20:26:36.584Z,7.33
2022-11-23T20:29:05.745Z,6.36
2022-11-23T20:31:33.947Z,8.82
2022-11-23T20:34:04.166Z,9.09
2022-11-23T20:36:36.821Z,6.02
2022-11-23T20:39:06.987Z,5.32
2022-11-23T20:41:36.633Z,7.64
2022-11-23T20:44:11.296Z,8.01
2022-11-23T20:47:01.812Z,10.50
2022-11-23T20:49:25.196Z,8.28
2022-11-23T20:51:52.088Z,7.86
2022-11-23T20:54:19.965Z,7.72
2022-11-23T20:56:47.035Z,6.38
2022-11-23T20:59:13.890Z,7.66
2022-11-23T21:01:40.951Z,9.47
2022-11-23T21:04:09.121Z,8.51
2022-11-23T21:06:39.388Z,6.74
2022-11-23T21:09:09.091Z,7.93
2022-11-23T21:11:55.068Z,7.93
2022-11-23T21:14:24.657Z,5.86
2022-11-23T21:16:55.308Z,6.78
2022-11-23T21:19:24.838Z,7.43
2022-11-23T21:21:52.590Z,8.37
2022-11-23T21:24:20.992Z,8.82
2022-11-23T21:26:49.453Z,7.78
2022-11-23T21:29:18.148Z,7.81
2022-11-23T21:31:47.233Z,8.38
2022-11-23T21:34:28.520Z,8.24
2022-11-23T21:36:56.653Z,7.34
2022-11-23T21:39:24.082Z,5.75
2022-11-23T21:41:53.427Z,4.86
2022-11-23T21:44:22.297Z,7.52
2022-11-23T21:46:49.706Z,7.68
2022-11-23T21:49:17.081Z,6.56
2022-11-23T21:51:45.637Z,7.51
2022-11-23T21:54:16.389Z,7.50
2022-11-23T21:56:45.379Z,7.76
2022-11-23T21:59:12.489Z,4.56
2022-11-23T22:01:40.025Z,5.36
2022-11-23T22:04:11.994Z,7.67
2022-11-23T22:06:40.111Z,8.03
2022-11-23T22:09:09.689Z,8.46
2022-11-23T22:11:38.565Z,7.87
2022-11-23T22:14:08.567Z,8.16
2022-11-23T22:16:37.858Z,7.62
2022-11-23T22:19:06.730Z,6.67
2022-11-23T22:21:36.630Z,9.22
2022-11-23T22:24:04.900Z,8.65
2022-11-23T22:26:31.804Z,6.94
2022-11-23T22:29:02.594Z,6.33
2022-11-23T22:31:33.996Z,7.32
2022-11-23T22:34:03.027Z,7.02
2022-11-23T22:36:30.289Z,7.08
2022-11-23T22:39:02.855Z,6.44
2022-11-23T22:41:33.624Z,6.57
2022-11-23T22:44:00.374Z,7.39
2022-11-23T22:46:27.181Z,8.45
2022-11-23T22:48:54.522Z,6.79
2022-11-23T22:51:23.820Z,7.85
2022-11-23T22:53:54.713Z,8.24
2022-11-23T22:56:21.863Z,8.47
2022-11-23T22:58:50.124Z,8.12
2022-11-23T23:01:21.799Z,8.53
2022-11-23T23:03:52.730Z,8.66
2022-11-23T23:06:21.798Z,8.40
2022-11-23T23:08:53.251Z,5.93
2022-11-23T23:11:21.339Z,8.52
2022-11-23T23:13:48.060Z,7.70
2022-11-23T23:16:14.857Z,7.92
2022-11-23T23:18:42.915Z,7.64
2022-11-23T23:21:15.116Z,8.67
2022-11-23T23:23:44.097Z,7.30
2022-11-23T23:26:12.285Z,9.01
2022-11-23T23:28:39.300Z,8.42
2022-11-23T23:31:14.125Z,7.21
2022-11-23T23:33:40.956Z,8.75
2022-11-23T23:36:10.125Z,8.08
2022-11-23T23:38:37.545Z,8.33
2022-11-23T23:41:07.047Z,8.80
2022-11-23T23:43:34.371Z,6.50
2022-11-23T23:46:03.383Z,5.86
2022-11-23T23:48:32.370Z,7.74
2022-11-23T23:51:04.294Z,7.80
2022-11-23T23:53:34.177Z,9.62
2022-11-23T23:56:03.722Z,6.47
2022-11-23T23:58:30.769Z,8.51
